createdAt,value
2023-05-01T00:00:53.020Z,14.25
2023-05-01T00:06:40.084Z,14.14
2023-05-01T00:12:27.138Z,14.07
2023-05-01T00:18:14.702Z,14.06
2023-05-01T00:24:02.700Z,14.14
2023-05-01T00:29:50.843Z,14.13
2023-05-01T00:35:44.281Z,14.03
2023-05-01T00:41:34.110Z,14.05
2023-05-01T00:47:21.503Z,14.00
2023-05-01T00:53:08.517Z,13.94
2023-05-01T00:58:56.833Z,13.98
2023-05-01T01:04:48.716Z,14.02
2023-05-01T01:10:50.061Z,13.86
2023-05-01T01:16:41.899Z,13.80
2023-05-01T01:22:29.621Z,13.83
2023-05-01T01:28:43.764Z,13.78
2023-05-01T01:34:36.359Z,13.79
2023-05-01T01:40:25.653Z,13.53
2023-05-01T01:46:13.041Z,13.63
2023-05-01T01:52:03.394Z,13.53
2023-05-01T01:57:51.730Z,13.47
2023-05-01T02:03:41.402Z,13.44
2023-05-01T02:09:29.812Z,13.38
2023-05-01T02:15:19.096Z,13.18
2023-05-01T02:21:06.938Z,13.15
2023-05-01T02:27:22.046Z,13.00
2023-05-01T02:33:09.162Z,12.72
2023-05-01T02:38:56.184Z,12.79
2023-05-01T02:44:51.026Z,12.99
2023-05-01T02:50:40.752Z,12.97
2023-05-01T02:56:28.085Z,13.08
2023-05-01T03:02:15.903Z,13.07
2023-05-01T03:08:04.239Z,13.02
2023-05-01T03:13:51.285Z,12.95
2023-05-01T03:19:37.993Z,12.79
2023-05-01T03:25:27.707Z,12.83
2023-05-01T03:31:14.570Z,12.72
2023-05-01T03:37:02.232Z,12.71
2023-05-01T03:42:49.152Z,12.87
2023-05-01T03:48:40.629Z,12.81
2023-05-01T03:54:29.992Z,12.90
2023-05-01T04:00:19.497Z,12.89
2023-05-01T04:06:07.927Z,12.78
2023-05-01T04:11:54.840Z,12.96
2023-05-01T04:17:46.377Z,13.07
2023-05-01T04:23:34.819Z,13.03
2023-05-01T04:29:22.040Z,13.09
2023-05-01T04:35:09.635Z,12.99
2023-05-01T04:40:59.794Z,12.75
2023-05-01T04:46:46.720Z,12.78
2023-05-01T04:52:35.972Z,12.69
2023-05-01T04:58:25.593Z,13.05
2023-05-01T05:04:18.804Z,13.01
2023-05-01T05:10:09.736Z,13.03
2023-05-01T05:15:57.283Z,13.18
2023-05-01T05:21:45.850Z,13.32
2023-05-01T05:27:37.898Z,13.22
2023-05-01T05:33:25.404Z,13.38
2023-05-01T05:39:15.550Z,13.39
2023-05-01T05:45:02.554Z,13.35
2023-05-01T05:50:51.163Z,13.20
2023-05-01T05:56:38.060Z,13.31
2023-05-01T06:02:26.530Z,13.43
2023-05-01T06:08:14.616Z,13.57
2023-05-01T06:14:02.869Z,13.57
2023-05-01T06:19:54.193Z,13.56
2023-05-01T06:25:41.421Z,13.40
2023-05-01T06:31:28.350Z,13.88
2023-05-01T06:37:23.512Z,14.19
2023-05-01T06:43:14.769Z,14.28
2023-05-01T06:49:03.012Z,14.20
2023-05-01T06:54:58.932Z,14.38
2023-05-01T07:00:47.084Z,14.75
2023-05-01T07:06:35.909Z,14.80
2023-05-01T07:12:23.545Z,14.73
2023-05-01T07:18:14.554Z,14.41
2023-05-01T07:24:05.765Z,14.74
2023-05-01T07:29:56.266Z,14.89
2023-05-01T07:35:53.519Z,14.90
2023-05-01T07:41:49.790Z,14.93
2023-05-01T07:47:41.729Z,15.05
2023-05-01T07:53:42.822Z,15.11
2023-05-01T07:59:38.099Z,14.88
2023-05-01T08:05:35.624Z,14.92
2023-05-01T08:11:30.208Z,15.06
2023-05-01T08:17:21.326Z,15.19
2023-05-01T08:23:13.290Z,15.39
2023-05-01T08:29:00.131Z,15.58
2023-05-01T08:34:57.413Z,15.62
2023-05-01T08:47:18.264Z,15.79
2023-05-01T08:53:14.507Z,15.96
2023-05-01T08:59:07.073Z,15.87
2023-05-01T09:04:58.053Z,15.79
2023-05-01T09:10:48.225Z,15.90
2023-05-01T09:16:36.594Z,15.85
2023-05-01T09:22:27.073Z,16.37
2023-05-01T09:28:15.969Z,16.39
2023-05-01T09:34:04.744Z,16.84
2023-05-01T09:40:11.133Z,16.94
2023-05-01T09:46:13.259Z,17.03
2023-05-01T09:52:11.864Z,17.04
2023-05-01T09:58:01.691Z,16.82
2023-05-01T10:03:55.110Z,16.79
2023-05-01T10:09:42.393Z,16.88
2023-05-01T10:15:39.920Z,17.00
2023-05-01T10:21:28.592Z,17.09
2023-05-01T10:27:18.900Z,17.08
2023-05-01T10:33:06.074Z,17.44
2023-05-01T10:38:55.704Z,18.12
2023-05-01T10:44:43.232Z,18.44
2023-05-01T10:50:34.968Z,17.95
2023-05-01T10:56:23.890Z,18.28
2023-05-01T11:02:23.367Z,18.40
2023-05-01T11:08:33.359Z,18.00
2023-05-01T11:14:20.765Z,17.86
2023-05-01T11:20:09.267Z,18.06
2023-05-01T11:26:05.715Z,18.08
2023-05-01T11:31:52.907Z,18.61
2023-05-01T11:37:44.630Z,19.42
2023-05-01T11:43:31.861Z,20.70
2023-05-01T11:49:28.212Z,21.49
2023-05-01T11:55:16.967Z,21.15
2023-05-01T12:01:08.348Z,20.41
2023-05-01T12:07:00.315Z,19.76
2023-05-01T12:12:59.485Z,19.61
2023-05-01T12:18:49.238Z,19.17
2023-05-01T12:24:56.695Z,17.91
2023-05-01T12:30:47.566Z,17.14
2023-05-01T12:36:41.103Z,18.33
2023-05-01T12:42:40.496Z,18.45
2023-05-01T12:48:52.364Z,19.03
2023-05-01T12:54:50.601Z,16.63
2023-05-01T13:00:55.838Z,16.36
2023-05-01T13:06:43.374Z,16.49
2023-05-01T13:13:04.086Z,16.75
2023-05-01T13:18:52.952Z,16.73
2023-05-01T13:24:41.727Z,17.44
2023-05-01T13:30:34.752Z,17.89
2023-05-01T13:36:26.385Z,18.13
2023-05-01T13:42:23.013Z,17.76
2023-05-01T13:48:11.046Z,17.60
2023-05-01T13:53:58.293Z,18.01
2023-05-01T13:59:49.212Z,18.48
2023-05-01T14:05:37.027Z,18.94
2023-05-01T14:11:23.884Z,18.85
2023-05-01T14:17:16.638Z,18.86
2023-05-01T14:23:10.663Z,18.88
2023-05-01T14:29:01.278Z,18.47
2023-05-01T14:34:50.370Z,18.42
2023-05-01T14:40:40.463Z,18.18
2023-05-01T14:46:33.978Z,17.84
2023-05-01T14:52:21.568Z,17.61
2023-05-01T14:58:08.746Z,17.05
2023-05-01T15:03:56.100Z,16.84
2023-05-01T15:09:44.524Z,17.26
2023-05-01T15:15:31.923Z,17.21
2023-05-01T15:21:18.913Z,17.40
2023-05-01T15:27:09.823Z,17.30
2023-05-01T15:32:57.433Z,17.41
2023-05-01T15:38:44.989Z,17.70
2023-05-01T15:44:35.339Z,17.84
2023-05-01T15:50:24.496Z,18.32
2023-05-01T15:56:15.302Z,17.98
2023-05-01T16:02:02.920Z,18.01
2023-05-01T16:07:58.023Z,17.74
2023-05-01T16:13:51.225Z,17.71
2023-05-01T16:19:42.462Z,18.23
2023-05-01T16:25:32.380Z,18.41
2023-05-01T16:31:27.088Z,18.39
2023-05-01T16:37:18.321Z,18.37
2023-05-01T16:43:07.305Z,18.00
2023-05-01T16:49:00.494Z,17.69
2023-05-01T16:54:57.018Z,17.64
2023-05-01T17:00:44.007Z,18.02
2023-05-01T17:06:33.492Z,18.12
2023-05-01T17:12:27.680Z,17.93
2023-05-01T17:18:15.992Z,17.90
2023-05-01T17:24:03.321Z,17.82
2023-05-01T17:29:52.166Z,17.95
2023-05-01T17:35:46.082Z,18.22
2023-05-01T17:41:37.421Z,18.22
2023-05-01T17:47:26.042Z,18.33
2023-05-01T17:53:13.261Z,18.17
2023-05-01T17:59:00.168Z,17.91
2023-05-01T18:04:50.332Z,17.67
2023-05-01T18:10:37.543Z,17.69
2023-05-01T18:16:26.782Z,17.64
2023-05-01T18:22:14.045Z,17.40
2023-05-01T18:28:00.951Z,17.43
2023-05-01T18:33:48.657Z,17.58
2023-05-01T18:39:44.801Z,17.64
2023-05-01T18:45:37.681Z,17.54
2023-05-01T18:51:33.422Z,17.38
2023-05-01T18:57:23.391Z,17.35
2023-05-01T19:03:19.872Z,17.33
2023-05-01T19:09:08.828Z,17.54
2023-05-01T19:14:56.116Z,17.32
2023-05-01T19:20:46.404Z,17.21
2023-05-01T19:26:48.505Z,16.99
2023-05-01T19:32:36.346Z,16.88
2023-05-01T19:38:26.230Z,16.79
2023-05-01T19:44:15.700Z,16.90
2023-05-01T19:50:02.730Z,16.77
2023-05-01T19:55:49.626Z,16.55
2023-05-01T20:01:45.174Z,16.57
2023-05-01T20:07:32.429Z,16.56
2023-05-01T20:13:19.215Z,16.42
2023-05-01T20:19:06.580Z,16.37
2023-05-01T20:24:53.271Z,16.07
2023-05-01T20:30:41.814Z,16.01
2023-05-01T20:36:33.022Z,16.17
2023-05-01T20:42:20.182Z,15.91
2023-05-01T20:48:09.780Z,15.65
2023-05-01T20:54:04.367Z,15.55
2023-05-01T20:59:55.562Z,15.71
2023-05-01T21:05:43.162Z,15.93
2023-05-01T21:11:33.015Z,16.11
2023-05-01T21:17:23.763Z,15.85
2023-05-01T21:23:21.250Z,15.80
2023-05-01T21:29:08.351Z,15.65
2023-05-01T21:34:55.227Z,15.75
2023-05-01T21:40:43.168Z,15.59
2023-05-01T21:46:33.188Z,15.40
2023-05-01T21:52:20.277Z,15.46
2023-05-01T21:58:11.217Z,15.48
2023-05-01T22:04:00.202Z,15.29
2023-05-01T22:09:55.292Z,15.21
2023-05-01T22:15:42.069Z,15.16
2023-05-01T22:21:41.900Z,14.98
2023-05-01T22:27:29.687Z,14.98
2023-05-01T22:33:17.916Z,14.87
2023-05-01T22:39:07.880Z,14.86
2023-05-01T22:44:55.163Z,14.55
2023-05-01T22:50:44.972Z,14.63
2023-05-01T22:56:31.779Z,14.44
2023-05-01T23:02:20.739Z,14.42
2023-05-01T23:08:11.527Z,14.40
2023-05-01T23:13:58.832Z,14.34
2023-05-01T23:19:45.812Z,14.36
2023-05-01T23:25:32.793Z,14.34
2023-05-01T23:31:27.506Z,14.21
2023-05-01T23:37:14.472Z,14.22
2023-05-01T23:43:01.185Z,14.08
2023-05-01T23:48:48.102Z,14.12
2023-05-01T23:54:34.793Z,13.96
